Kichifukuyu — JD3914 — position and weather

sailwx.info

Track history (hours):
 
Tides and Currents Weather Stations Pressure Air Temp Water Temp Dewpoint Dewpoint Depression Visibility Wind Speed Wind Dir Waves Ship Positions

Kichifukuyu

Last reported at 2017-Dec-11 07:49 UTC. Time now 2017-Dec-12 08:16 UTC.
Position N 34°47' E 134°38'.

Length 68 m; draft 3 m.

Type: Cargo ship. MMSI: 431006848.

Date/timePositionNaut miles runAvg speedWind from/ knotsBaromVisibWave heightAir tempDewpointWater temp
2017-Dec-11 07:49N 34°47' E 134°38'0 0.0
2017-Dec-11 07:25N 34°47' E 134°38'0 0.0
2017-Dec-11 06:12N 34°47' E 134°38'1 3.2
2017-Dec-11 06:00N 34°46' E 134°38'4 8.5
2017-Dec-11 05:29N 34°43' E 134°41'511.2
2017-Dec-11 05:00N 34°40' E 134°47'611.7
2017-Dec-11 04:30N 34°38' E 134°53'611.9
2017-Dec-11 04:00N 34°37' E 135°01'611.0
2017-Dec-11 03:30N 34°37' E 135°07'611.3
2017-Dec-11 03:00N 34°38' E 135°14'510.9
2017-Dec-11 02:30N 34°39' E 135°20'4 8.3
2017-Dec-11 02:00N 34°39' E 135°25'2 3.6
2017-Dec-11 01:30N 34°40' E 135°27'0 0.0
2017-Dec-11 01:00N 34°40' E 135°27'0 0.0
2017-Dec-11 00:30N 34°40' E 135°27'0 0.0
2017-Dec-11 00:00N 34°40' E 135°27'0 0.0
2017-Dec-10 23:30N 34°40' E 135°27'0 0.3
2017-Dec-10 23:00N 34°40' E 135°27'3 6.4
2017-Dec-10 22:30N 34°40' E 135°23'0 1.0
2017-Dec-10 22:00N 34°40' E 135°23'0 0.0
2017-Dec-10 21:30N 34°40' E 135°23'0 0.1
2017-Dec-10 21:00N 34°40' E 135°23'0 0.0
2017-Dec-10 20:30N 34°40' E 135°23'0 0.1
2017-Dec-10 20:00N 34°40' E 135°22'0 0.1
2017-Dec-10 19:30N 34°40' E 135°22'0 0.0
2017-Dec-10 19:00N 34°40' E 135°22'0 0.0
2017-Dec-10 18:30N 34°40' E 135°22'0 0.0
2017-Dec-10 18:00N 34°40' E 135°22'0 0.0
2017-Dec-10 17:30N 34°40' E 135°22'1 2.2
2017-Dec-10 17:00N 34°39' E 135°21'611.0
2017-Dec-10 16:30N 34°37' E 135°15'611.1
2017-Dec-10 16:00N 34°36' E 135°09'510.7
2017-Dec-10 15:30N 34°36' E 135°02'611.1
2017-Dec-10 15:00N 34°37' E 134°55'611.2
2017-Dec-10 14:27N 34°40' E 134°49'511.5
2017-Dec-10 14:00N 34°42' E 134°43'611.3
2017-Dec-10 13:30N 34°46' E 134°38'1 2.7
2017-Dec-10 12:58N 34°47' E 134°39'0 0.1
2017-Dec-10 12:14N 34°47' E 134°39'0 0.2
2017-Dec-10 12:00N 34°47' E 134°39'0 0.0
2017-Dec-10 10:58N 34°47' E 134°39'0 0.0
2017-Dec-10 08:44N 34°47' E 134°39'0 0.2
2017-Dec-10 08:30N 34°47' E 134°39'0 0.1
2017-Dec-10 07:14N 34°47' E 134°39'0 0.1
2017-Dec-10 06:49N 34°47' E 134°39'0 0.2
2017-Dec-10 06:30N 34°47' E 134°39'1 1.8
2017-Dec-10 06:00N 34°46' E 134°38'2 3.8
2017-Dec-10 05:29N 34°45' E 134°37'0 0.0
2017-Dec-10 03:34N 34°45' E 134°37'0 0.1
2017-Dec-10 03:30N 34°45' E 134°37'0 0.0
2017-Dec-10 03:00N 34°45' E 134°37'0 0.0
2017-Dec-10 02:30N 34°45' E 134°37'0 0.0
2017-Dec-10 01:53N 34°44' E 134°37'0 0.0
2017-Dec-10 01:26N 34°44' E 134°37'0 0.1
2017-Dec-10 01:00N 34°44' E 134°37'0 0.1
2017-Dec-10 00:30N 34°44' E 134°37'0 0.1
2017-Dec-10 00:00N 34°44' E 134°37'0 0.0
2017-Dec-09 23:30N 34°44' E 134°37'0 0.0
2017-Dec-09 23:00N 34°44' E 134°37'0 0.0
2017-Dec-09 22:29N 34°44' E 134°37'0 0.0
2017-Dec-09 22:00N 34°44' E 134°37'0 0.0
2017-Dec-09 21:15N 34°44' E 134°37'0 0.0
2017-Dec-09 21:00N 34°44' E 134°37'0 0.0
2017-Dec-09 20:30N 34°44' E 134°37'0 0.0
2017-Dec-09 20:00N 34°44' E 134°37'0 0.0
2017-Dec-09 19:26N 34°44' E 134°37'0 0.0
2017-Dec-09 19:00N 34°44' E 134°37'0 0.0
2017-Dec-09 18:30N 34°44' E 134°37'0 0.0
2017-Dec-09 18:00N 34°44' E 134°37'0 0.0
2017-Dec-09 17:30N 34°44' E 134°37'0 0.0
2017-Dec-09 17:00N 34°44' E 134°37'0 0.0
2017-Dec-09 16:30N 34°44' E 134°37'0 0.0
2017-Dec-09 16:00N 34°44' E 134°37'0 0.1
2017-Dec-09 15:30N 34°44' E 134°37'0 0.0
2017-Dec-09 15:00N 34°45' E 134°37'0 0.0
2017-Dec-09 14:30N 34°44' E 134°37'0 0.1
2017-Dec-09 14:00N 34°44' E 134°37'0 0.0
2017-Dec-09 13:30N 34°44' E 134°37'0 0.0
2017-Dec-09 12:59N 34°44' E 134°37'0 0.0
2017-Dec-09 12:30N 34°44' E 134°37'0 0.1
2017-Dec-09 12:00N 34°45' E 134°37'0 0.0
2017-Dec-09 11:30N 34°45' E 134°37'0 0.0
2017-Dec-09 11:00N 34°45' E 134°37'0 0.0
2017-Dec-09 10:30N 34°45' E 134°37'0 0.0
2017-Dec-09 10:00N 34°45' E 134°37'0 0.0
2017-Dec-09 09:30N 34°45' E 134°37'0 0.0
2017-Dec-09 09:00N 34°44' E 134°37'0 0.0
2017-Dec-09 08:29N 34°44' E 134°37'0 0.0
2017-Dec-09 08:00N 34°45' E 134°37'0 0.0
2017-Dec-09 07:30N 34°45' E 134°37'0 0.0
2017-Dec-09 07:00N 34°45' E 134°37'0 0.0
2017-Dec-09 06:30N 34°45' E 134°37'0 0.0
2017-Dec-09 06:00N 34°44' E 134°37'0 0.0
2017-Dec-09 05:29N 34°44' E 134°37'0 0.1
2017-Dec-09 05:00N 34°45' E 134°37'0 0.0
2017-Dec-09 04:30N 34°45' E 134°37'0 0.0
2017-Dec-09 04:00N 34°45' E 134°37'0 0.0
2017-Dec-09 03:25N 34°45' E 134°37'0 0.0
2017-Dec-09 03:00N 34°45' E 134°37'0 0.0
2017-Dec-09 02:25N 34°45' E 134°37'0 0.0
2017-Dec-09 02:00N 34°45' E 134°37'0 0.0
2017-Dec-09 01:28N 34°45' E 134°37'0 0.0
2017-Dec-09 01:00N 34°45' E 134°37'0 0.0
2017-Dec-09 00:30N 34°45' E 134°37'0 0.1
2017-Dec-09 00:00N 34°45' E 134°37'0 0.0
2017-Dec-08 23:30N 34°45' E 134°37'0 0.0
2017-Dec-08 23:00N 34°45' E 134°37'0 0.0
2017-Dec-08 22:30N 34°45' E 134°37'0 0.0
2017-Dec-08 22:00N 34°45' E 134°37'0 0.0
2017-Dec-08 21:30N 34°44' E 134°37'0 0.0
2017-Dec-08 21:00N 34°44' E 134°37'0 0.0
2017-Dec-08 20:29N 34°44' E 134°37'0 0.0
2017-Dec-08 19:46N 34°44' E 134°37'0 0.0
2017-Dec-08 19:30N 34°44' E 134°37'0 0.0
2017-Dec-08 19:00N 34°44' E 134°37'0 0.0
2017-Dec-08 18:30N 34°44' E 134°37'0 0.0
2017-Dec-08 18:00N 34°44' E 134°37'0 0.6
2017-Dec-08 17:30N 34°45' E 134°36'911.7
2017-Dec-08 16:42N 34°41' E 134°26'7710.5
2017-Dec-08 09:22N 34°18' E 132°57'1810.5
2017-Dec-08 07:40N 34°10' E 132°38'211.6
2017-Dec-08 07:30N 34°08' E 132°37'8 9.3
2017-Dec-08 06:40N 34°04' E 132°29'212.4
2017-Dec-08 06:29N 34°05' E 132°27'612.3
2017-Dec-08 06:00N 34°10' E 132°22'612.3
2017-Dec-08 05:31N 34°16' E 132°22'611.9
2017-Dec-08 05:00N 34°19' E 132°28'2 4.1
2017-Dec-08 04:30N 34°20' E 132°30'0 0.0
2017-Dec-08 04:00N 34°20' E 132°30'0 0.0
2017-Dec-08 03:30N 34°20' E 132°30'0 0.0
2017-Dec-08 03:00N 34°20' E 132°30'0 0.0
2017-Dec-08 02:30N 34°20' E 132°30'0 0.0
2017-Dec-08 02:00N 34°20' E 132°30'0 0.0
2017-Dec-08 01:30N 34°20' E 132°30'0 0.0
2017-Dec-08 01:00N 34°20' E 132°30'0 0.0
2017-Dec-08 00:30N 34°20' E 132°30'0 0.0
2017-Dec-08 00:00N 34°20' E 132°30'0 0.0
2017-Dec-07 23:30N 34°20' E 132°30'0 0.0
2017-Dec-07 23:00N 34°20' E 132°30'0 0.0
2017-Dec-07 22:30N 34°20' E 132°30'0 0.3
2017-Dec-07 22:01N 34°20' E 132°30'3 6.1
2017-Dec-07 21:30N 34°18' E 132°27'4 8.7
2017-Dec-07 21:00N 34°16' E 132°23'4 8.1
2017-Dec-07 20:30N 34°12' E 132°22'4 8.7
2017-Dec-07 20:00N 34°08' E 132°24'5 8.4
2017-Dec-07 19:21N 34°04' E 132°29'3 8.0
2017-Dec-07 18:57N 34°03' E 132°32'4 9.9
2017-Dec-07 18:30N 34°06' E 132°36'5 9.7
2017-Dec-07 18:00N 34°11' E 132°38'10 9.0
2017-Dec-07 16:56N 34°15' E 132°48'7 9.6
2017-Dec-07 16:12N 34°18' E 132°56'57 9.9
2017-Dec-07 10:25N 34°32' E 134°03'3210.5
2017-Dec-07 07:20N 34°47' E 134°38'0 0.2
2017-Dec-07 06:45N 34°47' E 134°38'0 0.0
2017-Dec-07 06:30N 34°47' E 134°38'0 0.0
2017-Dec-07 06:00N 34°47' E 134°38'0 0.0
2017-Dec-07 05:24N 34°47' E 134°38'0 0.0
2017-Dec-07 04:52N 34°47' E 134°38'0 0.0
2017-Dec-07 04:27N 34°47' E 134°38'0 0.0
2017-Dec-07 04:00N 34°47' E 134°38'0 0.0
2017-Dec-07 03:27N 34°47' E 134°38'0 0.0
2017-Dec-07 02:59N 34°47' E 134°38'0 0.0
2017-Dec-07 02:17N 34°47' E 134°38'0 0.0
2017-Dec-07 01:36N 34°47' E 134°38'0 0.0
2017-Dec-07 01:22N 34°47' E 134°38'0 0.0
2017-Dec-07 00:17N 34°47' E 134°38'0 0.0
2017-Dec-06 23:30N 34°47' E 134°38'0 0.0
2017-Dec-06 22:05N 34°47' E 134°38'0 0.0
2017-Dec-06 21:39N 34°47' E 134°38'0 2.8
2017-Dec-06 21:30N 34°47' E 134°38'2 4.2
2017-Dec-06 21:00N 34°45' E 134°37'  
2017-Dec-04 10:30N 34°45' E 134°37'611.6
2017-Dec-04 10:00N 34°42' E 134°44'612.1
2017-Dec-04 09:30N 34°39' E 134°50'612.1
2017-Dec-04 09:00N 34°37' E 134°57'611.2
2017-Dec-04 08:30N 34°36' E 135°04'612.1
2017-Dec-04 08:00N 34°36' E 135°11'611.4
2017-Dec-04 07:30N 34°36' E 135°18'510.9
2017-Dec-04 07:00N 34°36' E 135°25'2 4.0
2017-Dec-04 06:30N 34°35' E 135°27'0 0.0
2017-Dec-04 06:00N 34°35' E 135°27'0 0.8
2017-Dec-04 05:30N 34°36' E 135°27'0 0.0
2017-Dec-04 05:00N 34°35' E 135°27'0 0.0
2017-Dec-04 04:30N 34°36' E 135°27'0 0.1
2017-Dec-04 04:00N 34°36' E 135°27'0 0.1
2017-Dec-04 03:30N 34°36' E 135°27'0 0.1
2017-Dec-04 03:00N 34°36' E 135°27'0 0.0
2017-Dec-04 02:30N 34°36' E 135°27'0 0.0
2017-Dec-04 02:00N 34°36' E 135°27'0 0.0
2017-Dec-04 01:30N 34°36' E 135°27'0 0.0
2017-Dec-04 01:00N 34°36' E 135°27'0 0.0
2017-Dec-04 00:30N 34°36' E 135°27'0 0.0
2017-Dec-03 23:59N 34°36' E 135°27'0 0.1
2017-Dec-03 23:30N 34°36' E 135°27'0 0.1
2017-Dec-03 23:00N 34°36' E 135°27'0 0.0
2017-Dec-03 22:30N 34°36' E 135°27'0 0.1
2017-Dec-03 22:00N 34°36' E 135°27'0 0.1
2017-Dec-03 21:30N 34°36' E 135°27'0 0.1
2017-Dec-03 21:00N 34°36' E 135°27'0 0.1
2017-Dec-03 20:30N 34°36' E 135°27'0 0.0
2017-Dec-03 20:00N 34°36' E 135°27'0 0.0
2017-Dec-03 19:30N 34°36' E 135°27'0 0.0
2017-Dec-03 19:00N 34°36' E 135°27'0 0.0
2017-Dec-03 18:30N 34°36' E 135°27'0 0.0
2017-Dec-03 18:00N 34°36' E 135°27'0 0.0
2017-Dec-03 17:30N 34°36' E 135°27'0 0.0
2017-Dec-03 17:00N 34°36' E 135°27'0 0.0
2017-Dec-03 16:30N 34°35' E 135°27'0 0.0
2017-Dec-03 16:00N 34°36' E 135°27'0 0.1
2017-Dec-03 15:30N 34°36' E 135°27'0 0.1
2017-Dec-03 15:00N 34°36' E 135°27'0 0.0
2017-Dec-03 14:30N 34°36' E 135°27'0 0.1
2017-Dec-03 14:00N 34°36' E 135°27'0 0.0
2017-Dec-03 13:30N 34°36' E 135°27'0 0.1
2017-Dec-03 13:00N 34°36' E 135°27'0 0.1
2017-Dec-03 12:30N 34°36' E 135°27'0 0.1
2017-Dec-03 12:00N 34°36' E 135°27'0 0.1
2017-Dec-03 11:30N 34°36' E 135°27'0 0.0
2017-Dec-03 11:00N 34°35' E 135°27'0 0.1
2017-Dec-03 10:30N 34°36' E 135°27'0 0.0
2017-Dec-03 10:00N 34°36' E 135°27'0 0.1
2017-Dec-03 09:30N 34°36' E 135°27'0 0.0
2017-Dec-03 09:00N 34°35' E 135°27'0 0.1
2017-Dec-03 08:30N 34°36' E 135°27'0 0.1
2017-Dec-03 08:00N 34°36' E 135°27'0 0.1
2017-Dec-03 07:30N 34°36' E 135°27'0 0.1
2017-Dec-03 07:00N 34°35' E 135°27'0 0.0
2017-Dec-03 06:30N 34°36' E 135°27'0 0.1
2017-Dec-03 06:00N 34°36' E 135°27'0 0.1
2017-Dec-03 05:30N 34°36' E 135°27'0 0.0
2017-Dec-03 05:00N 34°35' E 135°27'0 0.1
2017-Dec-03 04:30N 34°36' E 135°27'0 0.1
2017-Dec-03 04:00N 34°36' E 135°27'0 0.0
2017-Dec-03 03:30N 34°36' E 135°27'0 0.1
2017-Dec-03 03:00N 34°36' E 135°27'0 0.0
2017-Dec-03 02:30N 34°36' E 135°27'0 0.1
2017-Dec-03 02:00N 34°36' E 135°27'0 0.0
2017-Dec-03 01:30N 34°36' E 135°27'0 0.0
2017-Dec-03 01:00N 34°36' E 135°27'0 0.1
2017-Dec-03 00:30N 34°36' E 135°27'0 0.0
2017-Dec-03 00:00N 34°36' E 135°27'0 0.0
2017-Dec-02 23:30N 34°36' E 135°27'0 0.0
2017-Dec-02 23:00N 34°36' E 135°27'0 0.0
2017-Dec-02 22:30N 34°36' E 135°27'0 0.1
2017-Dec-02 22:00N 34°36' E 135°27'0 0.1
2017-Dec-02 21:30N 34°36' E 135°27'0 0.1
2017-Dec-02 21:00N 34°36' E 135°27'0 0.1
2017-Dec-02 20:30N 34°36' E 135°27'0 0.0
2017-Dec-02 20:00N 34°36' E 135°27'0 0.0
2017-Dec-02 19:30N 34°36' E 135°27'0 0.0
2017-Dec-02 19:00N 34°36' E 135°27'0 0.0
2017-Dec-02 18:30N 34°36' E 135°27'0 0.1
2017-Dec-02 18:01N 34°36' E 135°27'0 0.0
2017-Dec-02 17:30N 34°36' E 135°27'0 0.1
2017-Dec-02 17:00N 34°36' E 135°27'0 0.0
2017-Dec-02 16:30N 34°36' E 135°27'0 0.1
2017-Dec-02 16:00N 34°36' E 135°27'0 0.0
2017-Dec-02 15:30N 34°36' E 135°27'0 0.1
2017-Dec-02 15:00N 34°36' E 135°27'0 0.1
2017-Dec-02 14:30N 34°36' E 135°27'0 0.1
2017-Dec-02 14:00N 34°36' E 135°27'0 0.0
2017-Dec-02 13:30N 34°36' E 135°27'0 0.0
2017-Dec-02 13:00N 34°36' E 135°27'0 0.1
2017-Dec-02 12:30N 34°36' E 135°27'0 0.1
2017-Dec-02 12:00N 34°36' E 135°27'0 0.1
2017-Dec-02 11:30N 34°36' E 135°27'0 0.0
2017-Dec-02 11:00N 34°35' E 135°27'0 0.1
2017-Dec-02 10:30N 34°36' E 135°27'0 1.0
2017-Dec-02 10:00N 34°35' E 135°27'3 6.7
2017-Dec-02 09:30N 34°36' E 135°23'4 7.8
2017-Dec-02 09:00N 34°36' E 135°18'4 7.9
2017-Dec-02 08:30N 34°35' E 135°13'4 8.1
2017-Dec-02 08:00N 34°35' E 135°09'510.4
2017-Dec-02 07:30N 34°36' E 135°02'5 9.9
2017-Dec-02 07:00N 34°36' E 134°56'611.1
2017-Dec-02 06:30N 34°39' E 134°50'611.3
2017-Dec-02 06:00N 34°42' E 134°45'7 9.0
2017-Dec-02 05:11N 34°47' E 134°38'0 1.4
2017-Dec-02 04:54N 34°47' E 134°39'0 0.1
2017-Dec-02 04:29N 34°47' E 134°39'0 0.0
2017-Dec-02 02:08N 34°47' E 134°39'0 0.3
2017-Dec-02 01:52N 34°47' E 134°39'0 0.0
2017-Dec-01 22:34N 34°47' E 134°39'0 0.6
2017-Dec-01 22:26N 34°47' E 134°39'1 3.1
2017-Dec-01 22:00N 34°46' E 134°38'610.2
2017-Dec-01 21:27N 34°43' E 134°32'610.6
2017-Dec-01 20:56N 34°41' E 134°26'94 9.9
2017-Dec-01 11:27N 34°10' E 132°38'510.4
2017-Dec-01 11:00N 34°06' E 132°35'6 8.6
2017-Dec-01 10:19N 34°04' E 132°29'310.7
2017-Dec-01 09:59N 34°06' E 132°26'510.5
2017-Dec-01 09:31N 34°10' E 132°22'510.8
2017-Dec-01 09:00N 34°16' E 132°22'510.5
2017-Dec-01 08:30N 34°18' E 132°28'3 5.4
2017-Dec-01 08:00N 34°20' E 132°30'  
Track history (hours):
 
Tides and Currents Weather Stations Pressure Air Temp Water Temp Dewpoint Dewpoint Depression Visibility Wind Speed Wind Dir Waves Ship Positions

Kichifukuyu

Last reported at 2017-Dec-11 07:49 UTC. Time now 2017-Dec-12 08:16 UTC.
Position N 34°47' E 134°38'.

Length 68 m; draft 3 m.

Type: Cargo ship. MMSI: 431006848.

Date/timePositionNaut miles runAvg speedWind from/ knotsBaromVisibWave heightAir tempDewpointWater temp
2017-Dec-11 07:49N 34°47' E 134°38'0 0.0
2017-Dec-11 07:25N 34°47' E 134°38'0 0.0
2017-Dec-11 06:12N 34°47' E 134°38'1 3.2
2017-Dec-11 06:00N 34°46' E 134°38'4 8.5
2017-Dec-11 05:29N 34°43' E 134°41'511.2
2017-Dec-11 05:00N 34°40' E 134°47'611.7
2017-Dec-11 04:30N 34°38' E 134°53'611.9
2017-Dec-11 04:00N 34°37' E 135°01'611.0
2017-Dec-11 03:30N 34°37' E 135°07'611.3
2017-Dec-11 03:00N 34°38' E 135°14'510.9
2017-Dec-11 02:30N 34°39' E 135°20'4 8.3
2017-Dec-11 02:00N 34°39' E 135°25'2 3.6
2017-Dec-11 01:30N 34°40' E 135°27'0 0.0
2017-Dec-11 01:00N 34°40' E 135°27'0 0.0
2017-Dec-11 00:30N 34°40' E 135°27'0 0.0
2017-Dec-11 00:00N 34°40' E 135°27'0 0.0
2017-Dec-10 23:30N 34°40' E 135°27'0 0.3
2017-Dec-10 23:00N 34°40' E 135°27'3 6.4
2017-Dec-10 22:30N 34°40' E 135°23'0 1.0
2017-Dec-10 22:00N 34°40' E 135°23'0 0.0
2017-Dec-10 21:30N 34°40' E 135°23'0 0.1
2017-Dec-10 21:00N 34°40' E 135°23'0 0.0
2017-Dec-10 20:30N 34°40' E 135°23'0 0.1
2017-Dec-10 20:00N 34°40' E 135°22'0 0.1
2017-Dec-10 19:30N 34°40' E 135°22'0 0.0
2017-Dec-10 19:00N 34°40' E 135°22'0 0.0
2017-Dec-10 18:30N 34°40' E 135°22'0 0.0
2017-Dec-10 18:00N 34°40' E 135°22'0 0.0
2017-Dec-10 17:30N 34°40' E 135°22'1 2.2
2017-Dec-10 17:00N 34°39' E 135°21'611.0
2017-Dec-10 16:30N 34°37' E 135°15'611.1
2017-Dec-10 16:00N 34°36' E 135°09'510.7
2017-Dec-10 15:30N 34°36' E 135°02'611.1
2017-Dec-10 15:00N 34°37' E 134°55'611.2
2017-Dec-10 14:27N 34°40' E 134°49'511.5
2017-Dec-10 14:00N 34°42' E 134°43'611.3
2017-Dec-10 13:30N 34°46' E 134°38'1 2.7
2017-Dec-10 12:58N 34°47' E 134°39'0 0.1
2017-Dec-10 12:14N 34°47' E 134°39'0 0.2
2017-Dec-10 12:00N 34°47' E 134°39'0 0.0
2017-Dec-10 10:58N 34°47' E 134°39'0 0.0
2017-Dec-10 08:44N 34°47' E 134°39'0 0.2
2017-Dec-10 08:30N 34°47' E 134°39'0 0.1
2017-Dec-10 07:14N 34°47' E 134°39'0 0.1
2017-Dec-10 06:49N 34°47' E 134°39'0 0.2
2017-Dec-10 06:30N 34°47' E 134°39'1 1.8
2017-Dec-10 06:00N 34°46' E 134°38'2 3.8
2017-Dec-10 05:29N 34°45' E 134°37'0 0.0
2017-Dec-10 03:34N 34°45' E 134°37'0 0.1
2017-Dec-10 03:30N 34°45' E 134°37'0 0.0
2017-Dec-10 03:00N 34°45' E 134°37'0 0.0
2017-Dec-10 02:30N 34°45' E 134°37'0 0.0
2017-Dec-10 01:53N 34°44' E 134°37'0 0.0
2017-Dec-10 01:26N 34°44' E 134°37'0 0.1
2017-Dec-10 01:00N 34°44' E 134°37'0 0.1
2017-Dec-10 00:30N 34°44' E 134°37'0 0.1
2017-Dec-10 00:00N 34°44' E 134°37'0 0.0
2017-Dec-09 23:30N 34°44' E 134°37'0 0.0
2017-Dec-09 23:00N 34°44' E 134°37'0 0.0
2017-Dec-09 22:29N 34°44' E 134°37'0 0.0
2017-Dec-09 22:00N 34°44' E 134°37'0 0.0
2017-Dec-09 21:15N 34°44' E 134°37'0 0.0
2017-Dec-09 21:00N 34°44' E 134°37'0 0.0
2017-Dec-09 20:30N 34°44' E 134°37'0 0.0
2017-Dec-09 20:00N 34°44' E 134°37'0 0.0
2017-Dec-09 19:26N 34°44' E 134°37'0 0.0
2017-Dec-09 19:00N 34°44' E 134°37'0 0.0
2017-Dec-09 18:30N 34°44' E 134°37'0 0.0
2017-Dec-09 18:00N 34°44' E 134°37'0 0.0
2017-Dec-09 17:30N 34°44' E 134°37'0 0.0
2017-Dec-09 17:00N 34°44' E 134°37'0 0.0
2017-Dec-09 16:30N 34°44' E 134°37'0 0.0
2017-Dec-09 16:00N 34°44' E 134°37'0 0.1
2017-Dec-09 15:30N 34°44' E 134°37'0 0.0
2017-Dec-09 15:00N 34°45' E 134°37'0 0.0
2017-Dec-09 14:30N 34°44' E 134°37'0 0.1
2017-Dec-09 14:00N 34°44' E 134°37'0 0.0
2017-Dec-09 13:30N 34°44' E 134°37'0 0.0
2017-Dec-09 12:59N 34°44' E 134°37'0 0.0
2017-Dec-09 12:30N 34°44' E 134°37'0 0.1
2017-Dec-09 12:00N 34°45' E 134°37'0 0.0
2017-Dec-09 11:30N 34°45' E 134°37'0 0.0
2017-Dec-09 11:00N 34°45' E 134°37'0 0.0
2017-Dec-09 10:30N 34°45' E 134°37'0 0.0
2017-Dec-09 10:00N 34°45' E 134°37'0 0.0
2017-Dec-09 09:30N 34°45' E 134°37'0 0.0
2017-Dec-09 09:00N 34°44' E 134°37'0 0.0
2017-Dec-09 08:29N 34°44' E 134°37'0 0.0
2017-Dec-09 08:00N 34°45' E 134°37'0 0.0
2017-Dec-09 07:30N 34°45' E 134°37'0 0.0
2017-Dec-09 07:00N 34°45' E 134°37'0 0.0
2017-Dec-09 06:30N 34°45' E 134°37'0 0.0
2017-Dec-09 06:00N 34°44' E 134°37'0 0.0
2017-Dec-09 05:29N 34°44' E 134°37'0 0.1
2017-Dec-09 05:00N 34°45' E 134°37'0 0.0
2017-Dec-09 04:30N 34°45' E 134°37'0 0.0
2017-Dec-09 04:00N 34°45' E 134°37'0 0.0
2017-Dec-09 03:25N 34°45' E 134°37'0 0.0
2017-Dec-09 03:00N 34°45' E 134°37'0 0.0
2017-Dec-09 02:25N 34°45' E 134°37'0 0.0
2017-Dec-09 02:00N 34°45' E 134°37'0 0.0
2017-Dec-09 01:28N 34°45' E 134°37'0 0.0
2017-Dec-09 01:00N 34°45' E 134°37'0 0.0
2017-Dec-09 00:30N 34°45' E 134°37'0 0.1
2017-Dec-09 00:00N 34°45' E 134°37'0 0.0
2017-Dec-08 23:30N 34°45' E 134°37'0 0.0
2017-Dec-08 23:00N 34°45' E 134°37'0 0.0
2017-Dec-08 22:30N 34°45' E 134°37'0 0.0
2017-Dec-08 22:00N 34°45' E 134°37'0 0.0
2017-Dec-08 21:30N 34°44' E 134°37'0 0.0
2017-Dec-08 21:00N 34°44' E 134°37'0 0.0
2017-Dec-08 20:29N 34°44' E 134°37'0 0.0
2017-Dec-08 19:46N 34°44' E 134°37'0 0.0
2017-Dec-08 19:30N 34°44' E 134°37'0 0.0
2017-Dec-08 19:00N 34°44' E 134°37'0 0.0
2017-Dec-08 18:30N 34°44' E 134°37'0 0.0
2017-Dec-08 18:00N 34°44' E 134°37'0 0.6
2017-Dec-08 17:30N 34°45' E 134°36'911.7
2017-Dec-08 16:42N 34°41' E 134°26'7710.5
2017-Dec-08 09:22N 34°18' E 132°57'1810.5
2017-Dec-08 07:40N 34°10' E 132°38'211.6
2017-Dec-08 07:30N 34°08' E 132°37'8 9.3
2017-Dec-08 06:40N 34°04' E 132°29'212.4
2017-Dec-08 06:29N 34°05' E 132°27'612.3
2017-Dec-08 06:00N 34°10' E 132°22'612.3
2017-Dec-08 05:31N 34°16' E 132°22'611.9
2017-Dec-08 05:00N 34°19' E 132°28'2 4.1
2017-Dec-08 04:30N 34°20' E 132°30'0 0.0
2017-Dec-08 04:00N 34°20' E 132°30'0 0.0
2017-Dec-08 03:30N 34°20' E 132°30'0 0.0
2017-Dec-08 03:00N 34°20' E 132°30'0 0.0
2017-Dec-08 02:30N 34°20' E 132°30'0 0.0
2017-Dec-08 02:00N 34°20' E 132°30'0 0.0
2017-Dec-08 01:30N 34°20' E 132°30'0 0.0
2017-Dec-08 01:00N 34°20' E 132°30'0 0.0
2017-Dec-08 00:30N 34°20' E 132°30'0 0.0
2017-Dec-08 00:00N 34°20' E 132°30'0 0.0
2017-Dec-07 23:30N 34°20' E 132°30'0 0.0
2017-Dec-07 23:00N 34°20' E 132°30'0 0.0
2017-Dec-07 22:30N 34°20' E 132°30'0 0.3
2017-Dec-07 22:01N 34°20' E 132°30'3 6.1
2017-Dec-07 21:30N 34°18' E 132°27'4 8.7
2017-Dec-07 21:00N 34°16' E 132°23'4 8.1
2017-Dec-07 20:30N 34°12' E 132°22'4 8.7
2017-Dec-07 20:00N 34°08' E 132°24'5 8.4
2017-Dec-07 19:21N 34°04' E 132°29'3 8.0
2017-Dec-07 18:57N 34°03' E 132°32'4 9.9
2017-Dec-07 18:30N 34°06' E 132°36'5 9.7
2017-Dec-07 18:00N 34°11' E 132°38'10 9.0
2017-Dec-07 16:56N 34°15' E 132°48'7 9.6
2017-Dec-07 16:12N 34°18' E 132°56'57 9.9
2017-Dec-07 10:25N 34°32' E 134°03'3210.5
2017-Dec-07 07:20N 34°47' E 134°38'0 0.2
2017-Dec-07 06:45N 34°47' E 134°38'0 0.0
2017-Dec-07 06:30N 34°47' E 134°38'0 0.0
2017-Dec-07 06:00N 34°47' E 134°38'0 0.0
2017-Dec-07 05:24N 34°47' E 134°38'0 0.0
2017-Dec-07 04:52N 34°47' E 134°38'0 0.0
2017-Dec-07 04:27N 34°47' E 134°38'0 0.0
2017-Dec-07 04:00N 34°47' E 134°38'0 0.0
2017-Dec-07 03:27N 34°47' E 134°38'0 0.0
2017-Dec-07 02:59N 34°47' E 134°38'0 0.0
2017-Dec-07 02:17N 34°47' E 134°38'0 0.0
2017-Dec-07 01:36N 34°47' E 134°38'0 0.0
2017-Dec-07 01:22N 34°47' E 134°38'0 0.0
2017-Dec-07 00:17N 34°47' E 134°38'0 0.0
2017-Dec-06 23:30N 34°47' E 134°38'0 0.0
2017-Dec-06 22:05N 34°47' E 134°38'0 0.0
2017-Dec-06 21:39N 34°47' E 134°38'0 2.8
2017-Dec-06 21:30N 34°47' E 134°38'2 4.2
2017-Dec-06 21:00N 34°45' E 134°37'  
2017-Dec-04 10:30N 34°45' E 134°37'611.6
2017-Dec-04 10:00N 34°42' E 134°44'612.1
2017-Dec-04 09:30N 34°39' E 134°50'612.1
2017-Dec-04 09:00N 34°37' E 134°57'611.2
2017-Dec-04 08:30N 34°36' E 135°04'612.1
2017-Dec-04 08:00N 34°36' E 135°11'611.4
2017-Dec-04 07:30N 34°36' E 135°18'510.9
2017-Dec-04 07:00N 34°36' E 135°25'2 4.0
2017-Dec-04 06:30N 34°35' E 135°27'0 0.0
2017-Dec-04 06:00N 34°35' E 135°27'0 0.8
2017-Dec-04 05:30N 34°36' E 135°27'0 0.0
2017-Dec-04 05:00N 34°35' E 135°27'0 0.0
2017-Dec-04 04:30N 34°36' E 135°27'0 0.1
2017-Dec-04 04:00N 34°36' E 135°27'0 0.1
2017-Dec-04 03:30N 34°36' E 135°27'0 0.1
2017-Dec-04 03:00N 34°36' E 135°27'0 0.0
2017-Dec-04 02:30N 34°36' E 135°27'0 0.0
2017-Dec-04 02:00N 34°36' E 135°27'0 0.0
2017-Dec-04 01:30N 34°36' E 135°27'0 0.0
2017-Dec-04 01:00N 34°36' E 135°27'0 0.0
2017-Dec-04 00:30N 34°36' E 135°27'0 0.0
2017-Dec-03 23:59N 34°36' E 135°27'0 0.1
2017-Dec-03 23:30N 34°36' E 135°27'0 0.1
2017-Dec-03 23:00N 34°36' E 135°27'0 0.0
2017-Dec-03 22:30N 34°36' E 135°27'0 0.1
2017-Dec-03 22:00N 34°36' E 135°27'0 0.1
2017-Dec-03 21:30N 34°36' E 135°27'0 0.1
2017-Dec-03 21:00N 34°36' E 135°27'0 0.1
2017-Dec-03 20:30N 34°36' E 135°27'0 0.0
2017-Dec-03 20:00N 34°36' E 135°27'0 0.0
2017-Dec-03 19:30N 34°36' E 135°27'0 0.0
2017-Dec-03 19:00N 34°36' E 135°27'0 0.0
2017-Dec-03 18:30N 34°36' E 135°27'0 0.0
2017-Dec-03 18:00N 34°36' E 135°27'0 0.0
2017-Dec-03 17:30N 34°36' E 135°27'0 0.0
2017-Dec-03 17:00N 34°36' E 135°27'0 0.0
2017-Dec-03 16:30N 34°35' E 135°27'0 0.0
2017-Dec-03 16:00N 34°36' E 135°27'0 0.1
2017-Dec-03 15:30N 34°36' E 135°27'0 0.1
2017-Dec-03 15:00N 34°36' E 135°27'0 0.0
2017-Dec-03 14:30N 34°36' E 135°27'0 0.1
2017-Dec-03 14:00N 34°36' E 135°27'0 0.0
2017-Dec-03 13:30N 34°36' E 135°27'0 0.1
2017-Dec-03 13:00N 34°36' E 135°27'0 0.1
2017-Dec-03 12:30N 34°36' E 135°27'0 0.1
2017-Dec-03 12:00N 34°36' E 135°27'0 0.1
2017-Dec-03 11:30N 34°36' E 135°27'0 0.0
2017-Dec-03 11:00N 34°35' E 135°27'0 0.1
2017-Dec-03 10:30N 34°36' E 135°27'0 0.0
2017-Dec-03 10:00N 34°36' E 135°27'0 0.1
2017-Dec-03 09:30N 34°36' E 135°27'0 0.0
2017-Dec-03 09:00N 34°35' E 135°27'0 0.1
2017-Dec-03 08:30N 34°36' E 135°27'0 0.1
2017-Dec-03 08:00N 34°36' E 135°27'0 0.1
2017-Dec-03 07:30N 34°36' E 135°27'0 0.1
2017-Dec-03 07:00N 34°35' E 135°27'0 0.0
2017-Dec-03 06:30N 34°36' E 135°27'0 0.1
2017-Dec-03 06:00N 34°36' E 135°27'0 0.1
2017-Dec-03 05:30N 34°36' E 135°27'0 0.0
2017-Dec-03 05:00N 34°35' E 135°27'0 0.1
2017-Dec-03 04:30N 34°36' E 135°27'0 0.1
2017-Dec-03 04:00N 34°36' E 135°27'0 0.0
2017-Dec-03 03:30N 34°36' E 135°27'0 0.1
2017-Dec-03 03:00N 34°36' E 135°27'0 0.0
2017-Dec-03 02:30N 34°36' E 135°27'0 0.1
2017-Dec-03 02:00N 34°36' E 135°27'0 0.0
2017-Dec-03 01:30N 34°36' E 135°27'0 0.0
2017-Dec-03 01:00N 34°36' E 135°27'0 0.1
2017-Dec-03 00:30N 34°36' E 135°27'0 0.0
2017-Dec-03 00:00N 34°36' E 135°27'0 0.0
2017-Dec-02 23:30N 34°36' E 135°27'0 0.0
2017-Dec-02 23:00N 34°36' E 135°27'0 0.0
2017-Dec-02 22:30N 34°36' E 135°27'0 0.1
2017-Dec-02 22:00N 34°36' E 135°27'0 0.1
2017-Dec-02 21:30N 34°36' E 135°27'0 0.1
2017-Dec-02 21:00N 34°36' E 135°27'0 0.1
2017-Dec-02 20:30N 34°36' E 135°27'0 0.0
2017-Dec-02 20:00N 34°36' E 135°27'0 0.0
2017-Dec-02 19:30N 34°36' E 135°27'0 0.0
2017-Dec-02 19:00N 34°36' E 135°27'0 0.0
2017-Dec-02 18:30N 34°36' E 135°27'0 0.1
2017-Dec-02 18:01N 34°36' E 135°27'0 0.0
2017-Dec-02 17:30N 34°36' E 135°27'0 0.1
2017-Dec-02 17:00N 34°36' E 135°27'0 0.0
2017-Dec-02 16:30N 34°36' E 135°27'0 0.1
2017-Dec-02 16:00N 34°36' E 135°27'0 0.0
2017-Dec-02 15:30N 34°36' E 135°27'0 0.1
2017-Dec-02 15:00N 34°36' E 135°27'0 0.1
2017-Dec-02 14:30N 34°36' E 135°27'0 0.1
2017-Dec-02 14:00N 34°36' E 135°27'0 0.0
2017-Dec-02 13:30N 34°36' E 135°27'0 0.0
2017-Dec-02 13:00N 34°36' E 135°27'0 0.1
2017-Dec-02 12:30N 34°36' E 135°27'0 0.1
2017-Dec-02 12:00N 34°36' E 135°27'0 0.1
2017-Dec-02 11:30N 34°36' E 135°27'0 0.0
2017-Dec-02 11:00N 34°35' E 135°27'0 0.1
2017-Dec-02 10:30N 34°36' E 135°27'0 1.0
2017-Dec-02 10:00N 34°35' E 135°27'3 6.7
2017-Dec-02 09:30N 34°36' E 135°23'4 7.8
2017-Dec-02 09:00N 34°36' E 135°18'4 7.9
2017-Dec-02 08:30N 34°35' E 135°13'4 8.1
2017-Dec-02 08:00N 34°35' E 135°09'510.4
2017-Dec-02 07:30N 34°36' E 135°02'5 9.9
2017-Dec-02 07:00N 34°36' E 134°56'611.1
2017-Dec-02 06:30N 34°39' E 134°50'611.3
2017-Dec-02 06:00N 34°42' E 134°45'7 9.0
2017-Dec-02 05:11N 34°47' E 134°38'0 1.4
2017-Dec-02 04:54N 34°47' E 134°39'0 0.1
2017-Dec-02 04:29N 34°47' E 134°39'0 0.0
2017-Dec-02 02:08N 34°47' E 134°39'0 0.3
2017-Dec-02 01:52N 34°47' E 134°39'0 0.0
2017-Dec-01 22:34N 34°47' E 134°39'0 0.6
2017-Dec-01 22:26N 34°47' E 134°39'1 3.1
2017-Dec-01 22:00N 34°46' E 134°38'610.2
2017-Dec-01 21:27N 34°43' E 134°32'610.6
2017-Dec-01 20:56N 34°41' E 134°26'94 9.9
2017-Dec-01 11:27N 34°10' E 132°38'510.4
2017-Dec-01 11:00N 34°06' E 132°35'6 8.6
2017-Dec-01 10:19N 34°04' E 132°29'310.7
2017-Dec-01 09:59N 34°06' E 132°26'510.5
2017-Dec-01 09:31N 34°10' E 132°22'510.8
2017-Dec-01 09:00N 34°16' E 132°22'510.5
2017-Dec-01 08:30N 34°18' E 132°28'3 5.4
2017-Dec-01 08:00N 34°20' E 132°30'  

Dump ship's entire track history